Terminal Aerodrome Forecast
Issued by NWS Sioux Falls, SD

Home | Current Version | Previous Version | Text Only | Print | Product List | Glossary On
Versions: 1 2 3 4 5 6 7 8 9 10 11 12 13 14 15
000
FTUS43 KFSD 210530
TAFSUX
TAF
KSUX 210530Z 2106/2206 32008KT P6SM SKC
     FM211000 VRB03KT 3SM BR FEW002
     FM211300 24004KT P6SM SKC
     FM211800 28006KT P6SM SKC
     FM212300 17005KT P6SM FEW250=

USA.gov is the U.S. government's official web portal to all federal, state and local government web resources and services.